Time;durP1;ratioP1;P1;durP2;ratioP2;P2;SDS_P1;SDS_P2;PMS_P1;PMS_P2;Temp;Humidity;BMP_temperature;BMP_pressure;BME280_temperature;BME280_humidity;BME280_pressure;Samples;Min_cycle;Max_cycle;Signal;HPM_P1;HPM_P2
2023/09/07 00:01:08;;;;;;;5.63;4.53;;;18.80;99.90;;;;;;6023001;23;20523;-76
2023/09/07 00:03:34;;;;;;;4.80;4.40;;;18.80;99.90;;;;;;6070903;23;20195;-75
2023/09/07 00:05:59;;;;;;;5.07;4.57;;;18.70;99.90;;;;;;6071610;23;20495;-76
2023/09/07 00:08:25;;;;;;;5.83;5.20;;;18.70;99.90;;;;;;6071818;23;20141;-74
2023/09/07 00:10:51;;;;;;;4.97;4.43;;;18.70;99.90;;;;;;6071529;23;20211;-74
2023/09/07 00:13:17;;;;;;;5.93;4.57;;;18.70;99.90;;;;;;6072527;23;20421;-75
2023/09/07 00:15:43;;;;;;;6.30;5.60;;;18.70;99.90;;;;;;6072646;23;20380;-74
2023/09/07 00:18:09;;;;;;;5.40;4.87;;;18.70;99.90;;;;;;6075304;23;20144;-76
2023/09/07 00:20:34;;;;;;;4.60;4.20;;;18.60;99.90;;;;;;6071128;23;20372;-76
2023/09/07 00:23:01;;;;;;;5.83;4.00;;;18.60;99.90;;;;;;6068809;23;20437;-75
2023/09/07 00:25:27;;;;;;;5.67;4.80;;;18.60;99.90;;;;;;6073032;23;20156;-75
2023/09/07 00:27:53;;;;;;;5.27;4.77;;;18.60;99.90;;;;;;6024490;23;20443;-74
2023/09/07 00:30:19;;;;;;;4.30;3.47;;;18.50;99.90;;;;;;6052072;23;20367;-75
2023/09/07 00:32:44;;;;;;;4.30;3.90;;;18.50;99.90;;;;;;6080288;23;20140;-78
2023/09/07 00:35:10;;;;;;;4.50;4.07;;;18.40;99.90;;;;;;6057530;23;20233;-74
2023/09/07 00:37:37;;;;;;;4.23;3.50;;;18.40;99.90;;;;;;6071684;23;20228;-74
2023/09/07 00:40:03;;;;;;;3.87;3.57;;;18.30;99.90;;;;;;6072375;23;20400;-75
2023/09/07 00:42:29;;;;;;;6.13;4.73;;;18.30;99.90;;;;;;6069694;23;20376;-76
2023/09/07 00:44:55;;;;;;;4.07;3.67;;;18.20;99.90;;;;;;6051671;23;20378;-74
2023/09/07 00:47:22;;;;;;;4.77;4.13;;;18.20;99.90;;;;;;6072321;23;20173;-76
2023/09/07 00:49:53;;;;;;;4.70;4.20;;;18.20;99.90;;;;;;6008797;23;20217;-74
2023/09/07 00:52:20;;;;;;;4.00;3.60;;;18.20;99.90;;;;;;6046307;23;20479;-75
2023/09/07 00:54:46;;;;;;;4.10;3.57;;;18.20;99.90;;;;;;6045877;23;20892;-74
2023/09/07 00:57:11;;;;;;;5.63;4.43;;;18.10;99.90;;;;;;6069919;23;20445;-74
2023/09/07 00:59:37;;;;;;;5.40;4.10;;;18.10;99.90;;;;;;6071004;23;20506;-75
2023/09/07 01:02:05;;;;;;;4.83;3.57;;;18.00;99.90;;;;;;6070184;23;20603;-74
2023/09/07 01:04:32;;;;;;;6.20;3.97;;;18.00;99.90;;;;;;6046251;23;20405;-74
2023/09/07 01:07:05;;;;;;;3.93;3.50;;;18.00;99.90;;;;;;6071603;23;20499;-76
2023/09/07 01:09:34;;;;;;;4.30;3.87;;;17.90;99.90;;;;;;6047161;23;20455;-75
2023/09/07 01:12:00;;;;;;;4.43;3.50;;;17.90;99.90;;;;;;6046021;23;20366;-75
2023/09/07 01:14:25;;;;;;;4.03;3.33;;;17.90;99.90;;;;;;6071514;23;20387;-75
2023/09/07 01:16:51;;;;;;;3.63;3.20;;;17.80;99.90;;;;;;6070556;23;20141;-75
2023/09/07 01:19:17;;;;;;;3.47;3.17;;;17.80;99.90;;;;;;6072111;23;20142;-76
2023/09/07 01:21:43;;;;;;;3.90;3.50;;;17.70;99.90;;;;;;6071204;23;20156;-74
2023/09/07 01:24:10;;;;;;;3.23;2.93;;;17.70;99.90;;;;;;6046099;23;20237;-77
2023/09/07 01:26:39;;;;;;;3.17;2.87;;;17.60;99.90;;;;;;6022480;23;20831;-75
2023/09/07 01:29:08;;;;;;;3.17;2.87;;;17.60;99.90;;;;;;6047467;23;20367;-75
2023/09/07 01:31:37;;;;;;;3.67;3.27;;;17.60;99.90;;;;;;6071575;23;20397;-74
2023/09/07 01:34:08;;;;;;;4.10;3.70;;;17.50;99.90;;;;;;6045784;23;20484;-77
2023/09/07 01:36:35;;;;;;;4.47;3.87;;;17.50;99.90;;;;;;6071060;23;20446;-76
2023/09/07 01:39:03;;;;;;;4.03;3.63;;;17.50;99.90;;;;;;6071907;23;20367;-76
2023/09/07 01:41:29;;;;;;;3.90;3.50;;;17.50;99.90;;;;;;6071158;23;20527;-76
2023/09/07 01:43:55;;;;;;;4.00;3.60;;;17.50;99.90;;;;;;6071152;23;20418;-75
2023/09/07 01:46:21;;;;;;;3.60;3.30;;;17.40;99.90;;;;;;6071618;23;20434;-74
2023/09/07 01:48:46;;;;;;;3.40;3.00;;;17.30;99.90;;;;;;6047688;23;20366;-76
2023/09/07 01:51:12;;;;;;;4.20;3.53;;;17.30;99.90;;;;;;6071211;23;20156;-75
2023/09/07 01:53:37;;;;;;;3.33;3.03;;;17.30;99.90;;;;;;6044986;23;20408;-75
2023/09/07 01:56:03;;;;;;;5.93;4.30;;;17.30;99.90;;;;;;6045749;23;20145;-74
2023/09/07 01:58:29;;;;;;;5.37;4.40;;;17.30;99.90;;;;;;6073032;23;20210;-75
2023/09/07 02:00:58;;;;;;;4.70;4.13;;;17.30;99.90;;;;;;6048275;23;20146;-74
2023/09/07 02:03:27;;;;;;;4.50;4.10;;;17.20;99.90;;;;;;6047846;23;20161;-76
2023/09/07 02:05:53;;;;;;;4.20;3.80;;;17.20;99.90;;;;;;6083457;23;20366;-75
2023/09/07 02:08:19;;;;;;;5.17;4.67;;;17.20;99.90;;;;;;6048441;23;20413;-77
2023/09/07 02:10:45;;;;;;;4.83;4.37;;;17.30;99.90;;;;;;6056183;23;20380;-75
2023/09/07 02:13:11;;;;;;;5.70;4.90;;;17.30;99.90;;;;;;6047015;23;20416;-74
2023/09/07 02:15:40;;;;;;;4.57;4.17;;;17.30;99.90;;;;;;6072149;23;20403;-75
2023/09/07 02:18:06;;;;;;;5.63;4.70;;;17.30;99.90;;;;;;6073363;23;20150;-76
2023/09/07 02:20:32;;;;;;;6.20;5.53;;;17.30;99.90;;;;;;6047881;23;20373;-75
2023/09/07 02:22:58;;;;;;;7.03;5.60;;;17.30;99.90;;;;;;6072542;23;20742;-76
2023/09/07 02:25:24;;;;;;;8.60;5.90;;;17.30;99.90;;;;;;6072683;23;20271;-75
2023/09/07 02:27:50;;;;;;;5.43;4.40;;;17.20;99.90;;;;;;6072503;23;20466;-76
2023/09/07 02:30:16;;;;;;;6.20;5.60;;;17.30;99.90;;;;;;6073048;23;20677;-76
2023/09/07 02:32:43;;;;;;;6.63;5.17;;;17.30;99.90;;;;;;6072526;23;20130;-75
2023/09/07 02:35:10;;;;;;;8.10;5.47;;;17.30;99.90;;;;;;6072930;23;20228;-76
2023/09/07 02:37:37;;;;;;;6.83;5.43;;;17.20;99.90;;;;;;6048751;23;20398;-75
2023/09/07 02:40:09;;;;;;;6.17;4.30;;;17.20;99.90;;;;;;6047547;23;20366;-77
2023/09/07 02:42:35;;;;;;;5.93;5.33;;;17.20;99.90;;;;;;6047007;23;20641;-76
2023/09/07 02:45:01;;;;;;;5.10;4.40;;;17.20;99.90;;;;;;6072719;23;20367;-74
2023/09/07 02:47:27;;;;;;;5.43;4.90;;;17.20;99.90;;;;;;6071830;23;20323;-77
2023/09/07 02:49:53;;;;;;;5.47;4.17;;;17.10;99.90;;;;;;6048093;23;20944;-74
2023/09/07 02:52:18;;;;;;;4.83;4.30;;;17.10;99.90;;;;;;6047538;23;20149;-74
2023/09/07 02:54:44;;;;;;;6.03;4.63;;;17.10;99.90;;;;;;6072359;23;20180;-75
2023/09/07 02:57:09;;;;;;;6.17;4.53;;;17.10;99.90;;;;;;6048026;23;20229;-76
2023/09/07 02:59:35;;;;;;;5.50;4.93;;;17.00;99.90;;;;;;6048185;23;20134;-75
2023/09/07 03:02:01;;;;;;;5.70;4.60;;;17.00;99.90;;;;;;6047470;23;20186;-75
2023/09/07 03:04:26;;;;;;;8.10;5.10;;;17.00;99.90;;;;;;6046434;23;20408;-75
2023/09/07 03:06:52;;;;;;;7.23;5.13;;;16.90;99.90;;;;;;6048364;23;20474;-75
2023/09/07 03:09:18;;;;;;;5.07;4.57;;;16.90;99.90;;;;;;6048031;23;20153;-75
2023/09/07 03:11:43;;;;;;;5.67;5.07;;;16.90;99.90;;;;;;6047052;23;20165;-76
2023/09/07 03:14:09;;;;;;;5.30;4.57;;;16.90;99.90;;;;;;6046485;23;20161;-76
2023/09/07 03:16:35;;;;;;;4.87;4.47;;;16.90;99.90;;;;;;6048318;23;20154;-74
2023/09/07 03:19:01;;;;;;;5.23;4.70;;;16.90;99.90;;;;;;6054216;23;20149;-75
2023/09/07 03:21:29;;;;;;;6.37;5.00;;;16.90;99.90;;;;;;6051650;23;20156;-76
2023/09/07 03:23:58;;;;;;;6.17;5.20;;;16.90;99.90;;;;;;6022503;23;20625;-75
2023/09/07 03:26:24;;;;;;;5.03;4.53;;;16.90;99.90;;;;;;6071352;23;20565;-77
2023/09/07 03:28:50;;;;;;;4.50;4.10;;;16.90;99.90;;;;;;6047511;23;20377;-76
2023/09/07 03:31:16;;;;;;;5.20;4.70;;;16.90;99.90;;;;;;6047189;23;20437;-76
2023/09/07 03:33:42;;;;;;;5.43;4.90;;;16.90;99.90;;;;;;6046060;23;20398;-77
2023/09/07 03:36:09;;;;;;;6.47;4.83;;;16.90;99.90;;;;;;6023988;23;20381;-75
2023/09/07 03:38:35;;;;;;;5.93;5.33;;;16.90;99.90;;;;;;6072997;23;20130;-75
2023/09/07 03:41:00;;;;;;;6.67;5.13;;;16.90;99.90;;;;;;6072364;23;20446;-76
2023/09/07 03:43:26;;;;;;;5.93;4.70;;;16.90;99.90;;;;;;6046201;23;20248;-74
2023/09/07 03:45:52;;;;;;;6.70;4.97;;;16.90;99.90;;;;;;6047806;23;20160;-76
2023/09/07 03:48:19;;;;;;;4.77;3.93;;;16.90;99.90;;;;;;6047442;23;20208;-77
2023/09/07 03:50:45;;;;;;;4.97;4.47;;;16.90;99.90;;;;;;6073287;23;20400;-74
2023/09/07 03:53:13;;;;;;;5.00;4.40;;;16.80;99.90;;;;;;6077924;23;20428;-76
2023/09/07 03:55:44;;;;;;;5.37;4.10;;;16.80;99.90;;;;;;6030193;23;20154;-76
2023/09/07 03:58:13;;;;;;;5.77;4.60;;;16.80;99.90;;;;;;6006162;23;20444;-75
2023/09/07 04:00:42;;;;;;;5.50;5.00;;;16.70;99.90;;;;;;5984362;23;20388;-75
2023/09/07 04:03:08;;;;;;;4.60;4.20;;;16.70;99.90;;;;;;5989240;23;20407;-75
2023/09/07 04:05:37;;;;;;;4.90;4.40;;;16.70;99.90;;;;;;6012997;23;20718;-76
2023/09/07 04:08:03;;;;;;;7.37;4.07;;;16.60;99.90;;;;;;6013094;23;20789;-75
2023/09/07 04:10:29;;;;;;;3.53;3.17;;;16.50;99.90;;;;;;5988387;23;20379;-74
2023/09/07 04:12:54;;;;;;;4.37;3.97;;;16.50;99.90;;;;;;5993270;23;20255;-76
2023/09/07 04:15:20;;;;;;;4.50;4.00;;;16.40;99.90;;;;;;6017537;23;20150;-76
2023/09/07 04:17:46;;;;;;;4.77;3.60;;;16.40;99.90;;;;;;6019047;23;20170;-75
2023/09/07 04:20:11;;;;;;;4.97;4.37;;;16.30;99.90;;;;;;6012699;23;20498;-76
2023/09/07 04:22:40;;;;;;;4.83;4.37;;;16.30;99.90;;;;;;6011007;23;20229;-75
2023/09/07 04:25:06;;;;;;;4.37;3.97;;;16.20;99.90;;;;;;5991700;23;20593;-76
2023/09/07 04:27:32;;;;;;;4.20;3.80;;;16.20;99.90;;;;;;6041464;23;20430;-76
2023/09/07 04:29:59;;;;;;;4.07;3.67;;;16.10;99.90;;;;;;6049161;23;20370;-77
2023/09/07 04:32:25;;;;;;;4.80;4.10;;;16.10;99.90;;;;;;6081181;23;20381;-75
2023/09/07 04:34:55;;;;;;;5.20;4.10;;;16.00;99.90;;;;;;6059026;23;20489;-76
2023/09/07 04:37:21;;;;;;;5.03;4.10;;;15.90;99.90;;;;;;6035685;23;20393;-74
2023/09/07 04:39:51;;;;;;;6.00;4.13;;;16.00;99.90;;;;;;6035597;23;20366;-75
2023/09/07 04:42:17;;;;;;;4.23;3.83;;;16.00;99.90;;;;;;6084174;23;20369;-75
2023/09/07 04:44:42;;;;;;;5.67;4.70;;;15.90;99.90;;;;;;6085307;23;20397;-76
2023/09/07 04:47:08;;;;;;;4.23;3.60;;;15.90;99.90;;;;;;6060133;23;20225;-75
2023/09/07 04:49:34;;;;;;;3.97;3.47;;;15.90;99.90;;;;;;6035159;23;20197;-76
2023/09/07 04:51:59;;;;;;;3.97;3.57;;;15.80;99.90;;;;;;6042100;23;20157;-75
2023/09/07 04:54:25;;;;;;;3.73;3.40;;;15.80;99.90;;;;;;6045161;23;20177;-75
2023/09/07 04:56:51;;;;;;;3.80;3.50;;;15.80;99.90;;;;;;6089051;23;20415;-76
2023/09/07 04:59:17;;;;;;;3.50;3.20;;;15.70;99.90;;;;;;6061450;23;20138;-75
2023/09/07 12:13:51;;;;;;;6.00;4.70;;;27.60;56.30;;;;;;6147239;23;20523;-78
2023/09/07 12:16:20;;;;;;;5.40;4.90;;;27.70;55.50;;;;;;6097372;23;20469;-78
2023/09/07 12:18:46;;;;;;;4.93;4.50;;;27.70;55.80;;;;;;6068031;23;20478;-77
2023/09/07 12:21:17;;;;;;;4.73;4.13;;;27.70;55.40;;;;;;6067107;23;20421;-78
2023/09/07 12:23:48;;;;;;;4.87;4.40;;;27.70;55.30;;;;;;6048485;23;20400;-78
2023/09/07 12:26:16;;;;;;;5.80;4.70;;;27.80;55.30;;;;;;6068614;23;20413;-77
2023/09/07 12:29:07;;;;;;;6.17;4.90;;;27.70;55.50;;;;;;6020279;23;20402;-76
2023/09/07 12:31:34;;;;;;;9.10;5.70;;;27.70;56.00;;;;;;6020437;23;20397;-77
2023/09/07 12:34:10;;;;;;;6.83;5.43;;;27.80;55.70;;;;;;6107551;23;20439;-80
2023/09/07 12:37:23;;;;;;;;;;;;;;;;;;;;;
2023/09/07 12:39:55;;;;;;;8.33;4.57;;;27.90;55.00;;;;;;6156051;23;20426;-78
2023/09/07 12:42:24;;;;;;;4.57;4.17;;;27.90;55.30;;;;;;6132808;23;20375;-78
2023/09/07 12:44:51;;;;;;;5.13;4.43;;;27.90;55.30;;;;;;6097181;23;20432;-78
2023/09/07 12:47:18;;;;;;;4.60;4.20;;;27.90;54.90;;;;;;6037910;23;20475;-78
2023/09/07 12:49:46;;;;;;;5.63;5.10;;;27.90;55.30;;;;;;6016693;23;20402;-78
2023/09/07 12:54:52;;;;;;;5.80;4.77;;;28.10;54.50;;;;;;6150522;23;20523;-76
2023/09/07 12:57:19;;;;;;;4.57;4.10;;;28.10;56.40;;;;;;6125318;23;20391;-77
2023/09/07 13:03:03;;;;;;;4.80;4.40;;;28.10;54.30;;;;;;6144603;23;20458;-79
2023/09/07 13:05:29;;;;;;;5.60;4.53;;;28.20;54.00;;;;;;6090965;23;20421;-78
2023/09/07 13:07:57;;;;;;;5.77;4.40;;;28.20;54.00;;;;;;6044118;23;20429;-78
2023/09/07 13:10:24;;;;;;;5.17;4.67;;;28.30;53.70;;;;;;6067759;23;20385;-79
2023/09/07 13:18:36;;;;;;;4.80;4.40;;;28.30;53.90;;;;;;6086412;23;20463;-78
2023/09/07 13:21:05;;;;;;;6.10;4.27;;;28.40;53.60;;;;;;6034863;23;20384;-78
2023/09/07 13:26:25;;;;;;;4.40;4.00;;;28.50;53.50;;;;;;6143222;23;20474;-77
2023/09/07 13:28:51;;;;;;;6.33;4.70;;;28.50;53.80;;;;;;6037715;23;20452;-78
2023/09/07 13:31:18;;;;;;;4.67;4.27;;;28.40;53.90;;;;;;6039169;23;20399;-78
2023/09/07 13:33:54;;;;;;;4.90;4.40;;;28.40;53.80;;;;;;6017478;23;20242;-78
2023/09/07 13:36:26;;;;;;;9.70;8.73;;;28.40;53.70;;;;;;6040767;23;20396;-78
2023/09/07 13:39:00;;;;;;;4.70;4.30;;;28.40;53.50;;;;;;6039491;23;20386;-78
2023/09/07 13:41:25;;;;;;;4.90;4.50;;;28.50;51.70;;;;;;6038066;23;20370;-79
2023/09/07 13:44:09;;;;;;;5.70;5.20;;;28.50;51.80;;;;;;6042914;23;20196;-78
2023/09/07 13:46:40;;;;;;;5.33;4.30;;;28.60;51.60;;;;;;6014623;23;20450;-78
2023/09/07 13:49:06;;;;;;;6.30;4.17;;;28.50;51.00;;;;;;6062936;23;20398;-78
2023/09/07 13:51:38;;;;;;;4.97;4.57;;;28.50;49.70;;;;;;6039386;23;20371;-79
2023/09/07 13:54:23;;;;;;;7.57;4.77;;;28.50;48.80;;;;;;6109208;23;20227;-78
2023/09/07 13:56:50;;;;;;;4.80;4.20;;;28.50;47.30;;;;;;6051499;23;20380;-78
2023/09/07 13:59:19;;;;;;;4.57;4.00;;;28.60;47.70;;;;;;6050502;23;20411;-77
2023/09/07 14:01:55;;;;;;;5.43;4.23;;;28.70;46.80;;;;;;6099864;23;20385;-78
2023/09/07 14:04:24;;;;;;;4.50;4.10;;;28.60;47.20;;;;;;6046457;23;20416;-79
2023/09/07 14:06:55;;;;;;;3.90;3.50;;;28.60;47.40;;;;;;6046773;23;20436;-79
2023/09/07 14:09:23;;;;;;;5.97;4.67;;;28.60;47.60;;;;;;6046372;23;20377;-78
2023/09/07 14:12:11;;;;;;;4.63;4.23;;;28.70;47.20;;;;;;6070178;23;20384;-78
2023/09/07 14:20:35;;;;;;;4.30;3.90;;;28.90;45.80;;;;;;6138707;23;20438;-79
2023/09/07 14:25:58;;;;;;;6.40;5.03;;;28.80;45.40;;;;;;6126349;23;20458;-79
2023/09/07 14:28:29;;;;;;;6.50;5.87;;;28.80;44.30;;;;;;6104643;23;20442;-77
2023/09/07 14:30:55;;;;;;;5.20;4.60;;;28.80;44.40;;;;;;6081583;23;20386;-78
2023/09/07 14:33:23;;;;;;;4.30;3.90;;;28.80;45.00;;;;;;6103123;23;20396;-78
2023/09/07 14:35:54;;;;;;;3.90;3.50;;;28.70;45.50;;;;;;6067287;23;20208;-79
2023/09/07 14:38:23;;;;;;;4.40;4.00;;;28.80;45.90;;;;;;6068276;23;20404;-78
2023/09/07 14:41:27;;;;;;;5.77;4.67;;;28.70;45.20;;;;;;6028127;23;20361;-78
2023/09/07 14:43:54;;;;;;;3.93;3.53;;;28.80;46.00;;;;;;6071403;23;20432;-79
2023/09/07 14:46:26;;;;;;;5.50;4.43;;;28.80;46.50;;;;;;6121306;23;20451;-79
2023/09/07 14:49:18;;;;;;;4.40;4.00;;;28.80;48.00;;;;;;6130116;23;20376;-79
2023/09/07 14:57:25;;;;;;;5.53;3.60;;;28.80;47.80;;;;;;6150843;23;20454;-80
2023/09/07 15:00:00;;;;;;;5.33;4.83;;;28.80;46.30;;;;;;6080260;23;20396;-78
2023/09/07 15:02:27;;;;;;;5.07;3.87;;;28.80;44.20;;;;;;6103254;23;20403;-78
2023/09/07 15:05:14;;;;;;;3.97;3.60;;;28.80;43.60;;;;;;6093670;23;20450;-79
2023/09/07 15:07:42;;;;;;;4.30;3.90;;;28.70;43.90;;;;;;5952450;23;20819;-79
2023/09/07 15:10:10;;;;;;;3.77;3.47;;;28.70;44.60;;;;;;5906911;24;20382;-78
2023/09/07 15:12:37;;;;;;;4.60;4.20;;;28.70;45.30;;;;;;5901563;24;20403;-78
2023/09/07 15:15:16;;;;;;;4.37;3.90;;;28.70;44.90;;;;;;5869653;24;20392;-79
2023/09/07 15:17:46;;;;;;;4.80;4.30;;;28.70;45.10;;;;;;5848554;24;20404;-78
2023/09/07 15:20:12;;;;;;;5.03;4.63;;;28.60;44.00;;;;;;5847010;24;20400;-79
2023/09/07 15:22:38;;;;;;;4.03;3.73;;;28.70;44.30;;;;;;5846849;24;20491;-78
2023/09/07 15:25:08;;;;;;;5.20;4.03;;;28.70;43.90;;;;;;5847926;24;20155;-78
2023/09/07 15:27:38;;;;;;;5.13;3.83;;;28.70;43.90;;;;;;5988429;23;20464;-79
2023/09/07 15:30:09;;;;;;;5.60;5.10;;;28.70;43.90;;;;;;6124269;23;20373;-79
2023/09/07 15:32:35;;;;;;;6.30;4.90;;;28.70;44.00;;;;;;6099203;23;20388;-79
2023/09/07 15:37:55;;;;;;;4.63;4.23;;;28.70;42.90;;;;;;6151493;23;20506;-79
2023/09/07 15:40:24;;;;;;;4.47;4.07;;;28.70;43.40;;;;;;6069977;23;20425;-77
2023/09/07 15:42:54;;;;;;;4.70;4.23;;;28.70;44.10;;;;;;6065136;23;20438;-78
2023/09/07 15:45:24;;;;;;;4.67;4.27;;;28.70;43.60;;;;;;6042044;23;20472;-79
2023/09/07 15:47:57;;;;;;;4.63;4.23;;;28.60;43.70;;;;;;6041227;23;20442;-78
2023/09/07 15:50:27;;;;;;;6.00;4.13;;;28.60;43.60;;;;;;6064684;23;20433;-79
2023/09/07 15:58:58;;;;;;;5.07;3.90;;;28.60;43.00;;;;;;6116421;23;20446;-78
2023/09/07 16:01:25;;;;;;;5.20;3.80;;;28.60;43.10;;;;;;6151234;23;20368;-79
2023/09/07 16:03:57;;;;;;;4.07;3.67;;;28.60;42.80;;;;;;6123447;23;20472;-80
2023/09/07 16:06:31;;;;;;;3.80;3.50;;;28.50;43.10;;;;;;6041354;23;20409;-79
2023/09/07 16:08:58;;;;;;;4.17;3.53;;;28.50;43.50;;;;;;5994402;23;20406;-78
2023/09/07 16:11:25;;;;;;;4.57;4.13;;;28.50;43.20;;;;;;6039666;23;20408;-78
2023/09/07 16:13:56;;;;;;;4.73;4.00;;;28.40;43.50;;;;;;6063264;23;20414;-79
2023/09/07 16:16:37;;;;;;;4.00;3.70;;;28.40;43.40;;;;;;6064221;23;20423;-78
2023/09/07 16:19:06;;;;;;;4.93;4.43;;;28.40;43.00;;;;;;6016817;23;20387;-79
2023/09/07 16:21:33;;;;;;;5.43;3.70;;;28.40;43.00;;;;;;6016225;23;20371;-77
2023/09/07 16:24:00;;;;;;;4.33;3.93;;;28.40;43.20;;;;;;6040119;23;20442;-79
2023/09/07 16:29:15;;;;;;;8.43;4.40;;;28.30;43.90;;;;;;6137647;23;20427;-78
2023/09/07 16:31:47;;;;;;;5.20;4.03;;;28.30;43.70;;;;;;6080045;23;20399;-79
2023/09/07 16:40:02;;;;;;;5.13;4.40;;;28.20;42.50;;;;;;6123733;23;20464;-79
2023/09/07 16:45:26;;;;;;;5.60;4.60;;;28.20;41.30;;;;;;6143326;23;20455;-79
2023/09/07 16:47:52;;;;;;;4.83;4.33;;;28.20;41.60;;;;;;6102713;23;20449;-78
2023/09/07 16:50:19;;;;;;;5.67;4.70;;;28.00;41.90;;;;;;6128089;23;20356;-79
2023/09/07 17:04:40;;;;;;;5.20;4.70;;;27.80;42.90;;;;;;6151645;23;20462;-78
2023/09/07 17:07:27;;;;;;;6.10;5.00;;;27.70;43.30;;;;;;6127884;23;20432;-77
2023/09/07 17:09:54;;;;;;;4.53;4.10;;;27.70;43.60;;;;;;6103779;23;20415;-79
2023/09/07 17:18:34;;;;;;;4.80;4.23;;;27.50;44.40;;;;;;6140731;23;20471;-78
2023/09/07 17:21:07;;;;;;;5.80;4.20;;;27.40;44.80;;;;;;6080364;23;20379;-79
2023/09/07 17:23:41;;;;;;;4.50;4.10;;;27.30;45.00;;;;;;6122360;23;20428;-78
2023/09/07 17:26:08;;;;;;;4.73;4.10;;;27.30;45.40;;;;;;6098597;23;20395;-79
2023/09/07 17:34:13;;;;;;;4.43;4.00;;;26.90;46.40;;;;;;6144815;23;20427;-78
2023/09/07 17:36:41;;;;;;;7.23;4.00;;;26.80;47.00;;;;;;6130864;23;20364;-80
2023/09/07 17:39:12;;;;;;;5.53;5.03;;;26.70;47.30;;;;;;6130782;23;20378;-78
2023/09/07 17:50:06;;;;;;;6.20;4.37;;;26.40;48.50;;;;;;6132449;23;20451;-79
2023/09/07 17:52:35;;;;;;;4.70;4.30;;;26.30;49.00;;;;;;6069737;23;20393;-77
2023/09/07 17:55:02;;;;;;;5.03;4.53;;;26.20;49.10;;;;;;6072104;23;20397;-78
2023/09/07 17:57:47;;;;;;;5.30;4.80;;;26.20;49.40;;;;;;6094970;23;20408;-78
2023/09/07 18:00:23;;;;;;;5.73;4.87;;;26.10;49.70;;;;;;6072087;23;20377;-79
2023/09/07 18:02:58;;;;;;;5.00;3.87;;;26.00;50.00;;;;;;6047405;23;20482;-78
2023/09/07 18:05:28;;;;;;;5.67;5.07;;;25.90;50.30;;;;;;6094531;23;20380;-78
2023/09/07 18:07:56;;;;;;;6.00;5.40;;;25.80;50.90;;;;;;6093307;23;20420;-78
2023/09/07 18:10:23;;;;;;;4.83;4.43;;;25.70;51.20;;;;;;6039930;23;20386;-79
2023/09/07 18:16:11;;;;;;;5.20;4.50;;;25.50;51.90;;;;;;6100748;23;20447;-78
2023/09/07 18:19:11;;;;;;;4.90;4.20;;;25.40;52.20;;;;;;6075949;23;20404;-78
2023/09/07 18:21:52;;;;;;;4.50;4.10;;;25.30;52.50;;;;;;6099150;23;20383;-78
2023/09/07 18:24:24;;;;;;;6.23;4.70;;;25.10;52.90;;;;;;6019008;23;20406;-78
2023/09/07 18:38:09;;;;;;;5.20;4.70;;;24.80;54.50;;;;;;6154180;23;20451;-79
2023/09/07 18:40:36;;;;;;;6.37;5.40;;;24.70;55.00;;;;;;6104141;23;20391;-77
2023/09/07 18:43:03;;;;;;;5.20;4.70;;;24.70;55.30;;;;;;6122332;23;20436;-79
2023/09/07 18:45:29;;;;;;;5.53;5.03;;;24.60;55.60;;;;;;6072883;23;20383;-79
2023/09/07 18:47:57;;;;;;;6.10;5.50;;;24.60;56.10;;;;;;6099651;23;20444;-77
2023/09/07 18:50:23;;;;;;;5.30;4.80;;;24.50;56.70;;;;;;6073364;23;20392;-77
2023/09/07 18:52:57;;;;;;;5.20;4.70;;;24.50;57.00;;;;;;6124198;23;20396;-80
2023/09/07 18:55:23;;;;;;;6.00;4.83;;;24.50;57.50;;;;;;6074323;23;20376;-79
2023/09/07 18:58:01;;;;;;;5.70;5.20;;;24.50;58.00;;;;;;6084467;23;20440;-78
2023/09/07 19:00:32;;;;;;;5.87;5.10;;;24.50;58.20;;;;;;6053184;23;20180;-79
2023/09/07 19:05:35;;;;;;;5.63;4.60;;;24.50;58.50;;;;;;6142621;23;20469;-77
2023/09/07 19:08:02;;;;;;;7.63;5.60;;;24.40;58.70;;;;;;6105712;23;20407;-78
2023/09/07 19:10:37;;;;;;;5.60;5.10;;;24.30;58.90;;;;;;6081717;23;20452;-79
2023/09/07 19:13:15;;;;;;;6.10;5.50;;;24.30;59.30;;;;;;6104826;23;20424;-78
2023/09/07 19:15:42;;;;;;;5.90;5.30;;;24.20;59.60;;;;;;6128128;23;20367;-75
2023/09/07 19:18:12;;;;;;;6.07;5.37;;;24.10;59.90;;;;;;6111520;23;20515;-77
2023/09/07 19:20:39;;;;;;;5.50;5.00;;;24.10;60.30;;;;;;6104462;23;20383;-78
2023/09/07 19:25:43;;;;;;;6.13;5.50;;;24.00;60.90;;;;;;6135994;23;20445;-77
2023/09/07 19:28:17;;;;;;;6.47;5.37;;;23.90;61.30;;;;;;6129267;23;20415;-78
2023/09/07 19:30:49;;;;;;;5.30;4.80;;;23.80;61.70;;;;;;6103802;23;20419;-78
2023/09/07 19:33:17;;;;;;;5.00;4.50;;;23.80;62.20;;;;;;6123905;23;20514;-78
2023/09/07 19:35:45;;;;;;;6.20;5.60;;;23.70;62.40;;;;;;6150899;23;20360;-76
2023/09/07 19:38:33;;;;;;;6.17;5.57;;;23.60;62.80;;;;;;6103492;23;20454;-78
2023/09/07 19:41:00;;;;;;;7.97;6.10;;;23.60;63.30;;;;;;6104180;23;20464;-77
2023/09/07 19:43:26;;;;;;;6.90;5.20;;;23.50;63.70;;;;;;6050730;23;20396;-77
2023/09/07 19:45:55;;;;;;;6.13;5.00;;;23.40;64.10;;;;;;6044861;23;20401;-78
2023/09/07 19:48:22;;;;;;;5.97;5.37;;;23.40;64.50;;;;;;6068845;23;20477;-76
2023/09/07 19:50:48;;;;;;;6.30;5.70;;;23.40;64.70;;;;;;6068268;23;20374;-76
2023/09/07 19:53:35;;;;;;;5.90;5.07;;;23.40;65.30;;;;;;6067273;23;20437;-79
2023/09/07 19:56:10;;;;;;;6.83;5.27;;;23.40;65.50;;;;;;6044088;23;20466;-78
2023/09/07 19:58:37;;;;;;;5.70;5.20;;;23.30;65.60;;;;;;6045782;23;20464;-77
2023/09/07 20:01:09;;;;;;;5.53;4.83;;;23.30;65.80;;;;;;6067802;23;20385;-75
2023/09/07 20:03:36;;;;;;;7.10;5.27;;;23.30;66.00;;;;;;6068434;23;20408;-78
2023/09/07 20:06:03;;;;;;;6.47;5.80;;;23.20;66.20;;;;;;6110432;23;20423;-79
2023/09/07 20:08:29;;;;;;;6.40;5.40;;;23.10;66.30;;;;;;6101732;23;20430;-76
2023/09/07 20:10:59;;;;;;;5.60;5.00;;;23.10;66.60;;;;;;6126497;23;20383;-76
2023/09/07 20:13:27;;;;;;;11.60;5.47;;;23.10;66.90;;;;;;6101979;23;20367;-78
2023/09/07 20:15:53;;;;;;;5.33;4.83;;;23.00;67.30;;;;;;6101047;23;20259;-78
2023/09/07 20:18:19;;;;;;;5.97;4.63;;;22.90;67.40;;;;;;6125406;23;20384;-78
2023/09/07 20:20:48;;;;;;;5.33;4.83;;;22.80;67.90;;;;;;6125830;23;20368;-78
2023/09/07 20:23:14;;;;;;;6.83;5.17;;;22.70;68.50;;;;;;6118538;23;20389;-76
2023/09/07 20:25:40;;;;;;;5.97;5.33;;;22.60;69.00;;;;;;6070183;23;20666;-77
2023/09/07 20:28:06;;;;;;;5.10;4.60;;;22.60;69.80;;;;;;6121389;23;20168;-79
2023/09/07 20:30:39;;;;;;;5.67;5.13;;;22.60;70.20;;;;;;6120376;23;20152;-77
2023/09/07 20:33:05;;;;;;;6.17;5.67;;;22.60;70.60;;;;;;6118400;23;20396;-77
2023/09/07 20:35:32;;;;;;;4.80;4.30;;;22.60;70.80;;;;;;6097280;23;20384;-78
2023/09/07 20:38:00;;;;;;;5.57;4.57;;;22.50;71.90;;;;;;6119944;23;20376;-75
2023/09/07 20:40:33;;;;;;;5.30;4.80;;;22.40;71.30;;;;;;6095393;23;20377;-75
2023/09/07 20:43:03;;;;;;;7.00;5.57;;;22.40;72.00;;;;;;6093986;23;20468;-78
2023/09/07 20:45:40;;;;;;;5.20;4.60;;;22.30;73.60;;;;;;6049908;23;20415;-78
2023/09/07 20:48:11;;;;;;;9.80;5.80;;;22.20;73.20;;;;;;6072666;23;20420;-75
2023/09/07 20:50:38;;;;;;;6.37;5.77;;;22.20;74.20;;;;;;6091907;23;20377;-77
2023/09/07 20:53:04;;;;;;;6.23;5.63;;;22.20;74.80;;;;;;6117284;23;20469;-77
2023/09/07 20:55:30;;;;;;;5.13;4.73;;;22.20;75.00;;;;;;6088944;23;20149;-76
2023/09/07 20:57:55;;;;;;;6.00;5.40;;;22.10;75.50;;;;;;6115202;23;20143;-77
2023/09/07 21:00:23;;;;;;;6.03;4.37;;;22.10;76.20;;;;;;6093459;23;20137;-75
2023/09/07 21:02:48;;;;;;;5.33;4.80;;;22.00;76.60;;;;;;6094482;23;20189;-75
2023/09/07 21:05:14;;;;;;;5.13;4.73;;;22.00;77.40;;;;;;6120191;23;20400;-77
2023/09/07 21:07:40;;;;;;;5.80;4.47;;;21.80;78.40;;;;;;6098325;23;20175;-76
2023/09/07 21:10:12;;;;;;;5.23;4.33;;;21.70;79.40;;;;;;6121420;23;20139;-76
2023/09/07 21:12:42;;;;;;;3.60;3.30;;;21.60;80.70;;;;;;6124727;23;20352;-77
2023/09/07 21:15:12;;;;;;;4.17;3.80;;;21.60;81.70;;;;;;6049970;23;20384;-75
2023/09/07 21:17:39;;;;;;;5.60;4.80;;;21.50;82.90;;;;;;6073356;23;20785;-78
2023/09/07 21:20:13;;;;;;;7.73;5.63;;;21.40;84.00;;;;;;6096700;23;20368;-77
2023/09/07 21:22:51;;;;;;;5.70;5.20;;;21.40;84.80;;;;;;6077055;23;20386;-77
2023/09/07 21:25:21;;;;;;;7.43;6.07;;;21.40;85.70;;;;;;6119520;23;20391;-75
2023/09/07 21:27:47;;;;;;;7.00;6.20;;;21.40;86.70;;;;;;6118516;23;20427;-76
2023/09/07 21:30:14;;;;;;;7.13;5.70;;;21.40;86.80;;;;;;6092794;23;20391;-75
2023/09/07 21:32:40;;;;;;;6.80;6.10;;;21.40;87.00;;;;;;6092955;23;20229;-74
2023/09/07 21:35:06;;;;;;;7.20;5.87;;;21.50;87.10;;;;;;6094448;23;20443;-76
2023/09/07 21:37:34;;;;;;;6.17;5.60;;;21.50;87.40;;;;;;6070593;23;20509;-74
2023/09/07 21:40:00;;;;;;;8.97;6.40;;;21.50;87.80;;;;;;6119570;23;20380;-75
2023/09/07 21:42:25;;;;;;;6.40;5.30;;;21.40;87.90;;;;;;6095975;23;20459;-76
2023/09/07 21:44:51;;;;;;;6.00;5.40;;;21.40;88.20;;;;;;6097678;23;20195;-76
2023/09/07 21:47:17;;;;;;;6.50;5.43;;;21.40;88.80;;;;;;6122778;23;21123;-74
2023/09/07 21:49:43;;;;;;;7.50;5.73;;;21.30;89.70;;;;;;6080516;23;20162;-75